Time;durP1;ratioP1;P1;durP2;ratioP2;P2;SDS_P1;SDS_P2;PMS_P1;PMS_P2;Temp;Humidity;BMP_temperature;BMP_pressure;BME280_temperature;BME280_humidity;BME280_pressure;Samples;Min_cycle;Max_cycle;Signal;HPM_P1;HPM_P2
2019/06/19 00:01:22;;;;;;;4;1.6;;;;;;;21.06;56.9375;957.9508;;;;
2019/06/19 00:03:49;;;;;;;3.5;1.9;;;;;;;20.99;57.03418;957.9691;;;;
2019/06/19 00:06:14;;;;;;;2.8;1.7;;;;;;;21.05;56.73535;958.0206;;;;
2019/06/19 00:08:39;;;;;;;3.1;1.6;;;;;;;21.14;56.79395;957.9141;;;;
2019/06/19 00:11:04;;;;;;;3;1.7;;;;;;;21.05;57.63184;957.902;;;;
2019/06/19 00:13:29;;;;;;;4.7;1.7;;;;;;;21.03;57.86523;957.8917;;;;
2019/06/19 00:15:54;;;;;;;4.4;1.7;;;;;;;21.07;57.92871;957.9133;;;;
2019/06/19 00:18:19;;;;;;;2.8;1.8;;;;;;;21.07;58.24707;957.9033;;;;
2019/06/19 00:20:45;;;;;;;2.4;1.9;;;;;;;21;58.59277;957.9366;;;;
2019/06/19 00:23:10;;;;;;;1.9;1.7;;;;;;;20.99;58.47168;957.9698;;;;
2019/06/19 00:25:35;;;;;;;2.7;2;;;;;;;20.96;59.15234;957.9969;;;;
2019/06/19 00:28:03;;;;;;;2.1;1.7;;;;;;;20.97;58.70703;958.0366;;;;
2019/06/19 00:30:29;;;;;;;2.7;1.8;;;;;;;20.96;59.57617;958.0411;;;;
2019/06/19 00:32:54;;;;;;;3.5;1.9;;;;;;;20.85;61.3291;957.9874;;;;
2019/06/19 00:35:19;;;;;;;2.6;1.9;;;;;;;20.8;60.73242;957.9811;;;;
2019/06/19 00:37:45;;;;;;;2.3;1.8;;;;;;;20.81;60.08691;958.0146;;;;
2019/06/19 00:40:10;;;;;;;3.4;2.1;;;;;;;20.84;60.11426;958.0181;;;;
2019/06/19 00:42:35;;;;;;;2;1.8;;;;;;;20.92;59.38184;958.0023;;;;
2019/06/19 00:45:01;;;;;;;2.9;2.1;;;;;;;20.8;59.17773;957.9041;;;;
2019/06/19 00:47:26;;;;;;;2.9;2.1;;;;;;;20.72;59.61426;957.9149;;;;
2019/06/19 00:49:51;;;;;;;3.2;1.9;;;;;;;20.66;59.94922;957.8931;;;;
2019/06/19 00:52:18;;;;;;;4.4;2.2;;;;;;;20.79;59.93066;957.8247;;;;
2019/06/19 00:55:05;;;;;;;3;2;;;;;;;20.75;60.27832;957.8158;;;;
2019/06/19 00:57:09;;;;;;;4.1;2.1;;;;;;;20.69;60.45898;957.7773;;;;
2019/06/19 00:59:33;;;;;;;5.1;2;;;;;;;20.73;60.58203;957.7648;;;;
2019/06/19 01:01:58;;;;;;;3.4;2.1;;;;;;;20.64;60.93457;957.7313;;;;
2019/06/19 01:04:23;;;;;;;2.9;1.9;;;;;;;20.82;60.20605;957.6592;;;;
2019/06/19 01:06:48;;;;;;;3.2;2.1;;;;;;;20.72;60.78027;957.626;;;;
2019/06/19 01:09:14;;;;;;;2.7;2.1;;;;;;;20.58;60.97461;957.5689;;;;
2019/06/19 01:11:39;;;;;;;3.1;2.2;;;;;;;20.53;61.88379;957.5154;;;;
2019/06/19 01:14:04;;;;;;;3;2.1;;;;;;;20.48;61.4082;957.5109;;;;
2019/06/19 01:16:29;;;;;;;3.4;2.1;;;;;;;20.46;61.33398;957.5589;;;;
2019/06/19 01:18:54;;;;;;;3.9;2;;;;;;;20.42;61.26953;957.5836;;;;
2019/06/19 01:21:19;;;;;;;2.7;2.1;;;;;;;20.42;61.87012;957.5356;;;;
2019/06/19 01:23:44;;;;;;;3.3;2.1;;;;;;;20.38;61.99512;957.525;;;;
2019/06/19 01:26:12;;;;;;;3.3;2.3;;;;;;;20.33;62.3877;957.5129;;;;
2019/06/19 01:28:37;;;;;;;3.8;2.2;;;;;;;20.31;63.88965;957.5143;;;;
2019/06/19 01:31:02;;;;;;;2.6;2.1;;;;;;;20.33;62.1875;957.4673;;;;
2019/06/19 01:33:27;;;;;;;2.3;2;;;;;;;20.29;62.42773;957.4196;;;;
2019/06/19 01:35:52;;;;;;;2.6;2.4;;;;;;;20.35;63.2959;957.4008;;;;
2019/06/19 01:38:18;;;;;;;4.3;2.1;;;;;;;20.36;61.68457;957.3606;;;;
2019/06/19 01:40:43;;;;;;;3.5;1.9;;;;;;;20.33;61.85742;957.3381;;;;
2019/06/19 01:43:09;;;;;;;2.6;2;;;;;;;20.32;64.30273;957.3511;;;;
2019/06/19 01:45:34;;;;;;;3.5;2.1;;;;;;;20.28;64.12109;957.3088;;;;
2019/06/19 01:48:03;;;;;;;3.4;2.2;;;;;;;20.25;64.04688;957.3054;;;;
2019/06/19 01:50:28;;;;;;;2.5;1.8;;;;;;;20.23;64.52637;957.3148;;;;
2019/06/19 01:52:54;;;;;;;2.1;1.9;;;;;;;20.23;63.98438;957.3524;;;;
2019/06/19 01:55:19;;;;;;;2.3;2;;;;;;;20.17;64;957.313;;;;
2019/06/19 01:57:44;;;;;;;3.6;1.9;;;;;;;20.34;61.7168;957.3554;;;;
2019/06/19 02:00:09;;;;;;;3;1.9;;;;;;;20.3;62.3584;957.3712;;;;
2019/06/19 02:02:34;;;;;;;2.6;1.7;;;;;;;20.29;61.24023;957.3697;;;;
2019/06/19 02:04:59;;;;;;;2;1.8;;;;;;;20.31;60.57129;957.3791;;;;
2019/06/19 02:07:24;;;;;;;3.4;1.9;;;;;;;20.18;61.08301;957.3489;;;;
2019/06/19 02:09:49;;;;;;;2.8;1.6;;;;;;;20.18;61.82324;957.3591;;;;
2019/06/19 02:12:14;;;;;;;2.3;1.7;;;;;;;20.1;62.64844;957.3434;;;;
2019/06/19 02:14:39;;;;;;;2.7;1.8;;;;;;;20.04;63.52344;957.3961;;;;
2019/06/19 02:17:06;;;;;;;2.7;1.7;;;;;;;19.99;62.91504;957.3666;;;;
2019/06/19 02:19:31;;;;;;;1.9;1.5;;;;;;;20;63.3623;957.3695;;;;
2019/06/19 02:21:58;;;;;;;1.8;1.6;;;;;;;19.93;63.69434;957.3926;;;;
2019/06/19 02:24:23;;;;;;;1.6;1.5;;;;;;;19.95;63.70898;957.3624;;;;
2019/06/19 02:26:50;;;;;;;1.7;1.6;;;;;;;19.89;64.62891;957.3569;;;;
2019/06/19 02:29:15;;;;;;;1.9;1.5;;;;;;;19.85;63.45898;957.3089;;;;
2019/06/19 02:31:40;;;;;;;3.1;1.7;;;;;;;19.79;64.77832;957.3054;;;;
2019/06/19 02:34:05;;;;;;;2.2;1.8;;;;;;;19.77;64.06055;957.2372;;;;
2019/06/19 02:36:30;;;;;;;2.2;1.7;;;;;;;19.63;65.07227;957.2257;;;;
2019/06/19 02:38:55;;;;;;;1.7;1.6;;;;;;;19.68;65.2334;957.2646;;;;
2019/06/19 02:41:20;;;;;;;3.2;1.8;;;;;;;19.69;66.1875;957.2263;;;;
2019/06/19 02:43:45;;;;;;;2.7;1.7;;;;;;;19.64;66.00195;957.2238;;;;
2019/06/19 02:46:10;;;;;;;1.6;1.5;;;;;;;19.68;64.84473;957.1638;;;;
2019/06/19 02:48:35;;;;;;;3.6;1.9;;;;;;;19.57;64.91113;957.1863;;;;
2019/06/19 02:51:00;;;;;;;2.9;1.7;;;;;;;19.58;65.32422;957.1422;;;;
2019/06/19 02:53:25;;;;;;;3.5;1.8;;;;;;;19.73;64.61816;957.1536;;;;
2019/06/19 02:55:51;;;;;;;2.5;1.7;;;;;;;19.54;65.1416;957.1449;;;;
2019/06/19 02:58:16;;;;;;;3;1.7;;;;;;;19.48;66.23633;957.1476;;;;
2019/06/19 03:00:42;;;;;;;2.5;1.7;;;;;;;19.44;66.03223;957.1622;;;;
2019/06/19 03:03:07;;;;;;;4.5;1.8;;;;;;;19.41;66.00391;957.1744;;;;
2019/06/19 03:05:34;;;;;;;2.2;1.7;;;;;;;19.42;66.85059;957.209;;;;
2019/06/19 03:07:59;;;;;;;2.7;1.6;;;;;;;19.46;65.63574;957.2288;;;;
2019/06/19 03:10:24;;;;;;;2.9;1.8;;;;;;;19.41;65.85059;957.2198;;;;
2019/06/19 03:12:49;;;;;;;2.7;1.6;;;;;;;19.43;66.13574;957.2196;;;;
2019/06/19 03:15:14;;;;;;;2.4;1.6;;;;;;;19.36;67.35938;957.2011;;;;
2019/06/19 03:17:40;;;;;;;2.1;1.7;;;;;;;19.35;67.66211;957.2144;;;;
2019/06/19 03:20:06;;;;;;;2.6;1.6;;;;;;;19.31;67.32715;957.1912;;;;
2019/06/19 03:22:33;;;;;;;2.3;1.5;;;;;;;19.37;67.19434;957.2109;;;;
2019/06/19 03:24:58;;;;;;;1.6;1.4;;;;;;;19.32;67.09277;957.2042;;;;
2019/06/19 03:27:23;;;;;;;3;1.6;;;;;;;19.3;67.40723;957.1809;;;;
2019/06/19 03:32:13;;;;;;;1.7;1.5;;;;;;;19.27;67.56738;957.1342;;;;
2019/06/19 03:34:38;;;;;;;2.5;1.6;;;;;;;19.19;67.74219;957.1506;;;;
2019/06/19 03:37:03;;;;;;;2.1;1.8;;;;;;;19.11;69.16309;957.1418;;;;
2019/06/19 03:39:34;;;;;;;2;1.6;;;;;;;19.12;68.8125;957.1164;;;;
2019/06/19 03:41:59;;;;;;;3;1.9;;;;;;;19.06;68.62695;957.0687;;;;
2019/06/19 03:44:24;;;;;;;2.3;1.7;;;;;;;19.09;68.79688;957.088;;;;
2019/06/19 03:46:49;;;;;;;3.9;1.8;;;;;;;19.1;68.59766;957.0482;;;;
2019/06/19 03:49:14;;;;;;;1.9;1.5;;;;;;;19.09;69.43066;957.0648;;;;
2019/06/19 03:51:39;;;;;;;2.2;1.8;;;;;;;19.08;68.25391;957.0201;;;;
2019/06/19 03:54:04;;;;;;;3.5;1.7;;;;;;;19.08;68.13672;957.0129;;;;
2019/06/19 03:56:29;;;;;;;2.2;1.7;;;;;;;19.16;67.20996;956.986;;;;
2019/06/19 04:02:28;;;;;;;2.5;1.9;;;;;;;19.2;67.19238;956.986;;;;
2019/06/19 04:04:53;;;;;;;3.5;1.5;;;;;;;19.18;67.30859;956.9906;;;;
2019/06/19 04:07:18;;;;;;;2;1.7;;;;;;;19.28;67.52148;956.9936;;;;
2019/06/19 04:09:43;;;;;;;2.7;1.9;;;;;;;19.3;67.66699;957.0659;;;;
2019/06/19 04:12:08;;;;;;;2.4;1.9;;;;;;;19.24;68.23242;957.0662;;;;
2019/06/19 04:14:33;;;;;;;2.8;1.8;;;;;;;19.24;68.47852;957.0977;;;;
2019/06/19 04:16:58;;;;;;;2.3;1.9;;;;;;;19.24;68.0918;957.1207;;;;
2019/06/19 04:19:23;;;;;;;2.8;1.9;;;;;;;19.29;66.98242;957.1677;;;;
2019/06/19 04:21:49;;;;;;;2.1;1.8;;;;;;;19.3;66.64551;957.1692;;;;
2019/06/19 04:24:14;;;;;;;3.5;2;;;;;;;19.34;67.69531;957.2156;;;;
2019/06/19 04:26:39;;;;;;;3;2;;;;;;;19.32;67.43457;957.2166;;;;
2019/06/19 04:29:07;;;;;;;2.3;1.8;;;;;;;19.36;67.27539;957.2037;;;;
2019/06/19 04:31:29;;;;;;;3.2;2;;;;;;;19.25;68.12793;957.1941;;;;
2019/06/19 04:33:54;;;;;;;3;2;;;;;;;19.26;69.33984;957.2031;;;;
2019/06/19 04:36:19;;;;;;;3;2.1;;;;;;;19.23;69.7002;957.2797;;;;
2019/06/19 04:38:44;;;;;;;3.2;1.9;;;;;;;19.25;67.69336;957.2916;;;;
2019/06/19 04:41:12;;;;;;;3.3;1.9;;;;;;;19.26;67.94238;957.283;;;;
2019/06/19 04:43:35;;;;;;;3.3;2.1;;;;;;;19.3;67.8418;957.3083;;;;
2019/06/19 04:46:00;;;;;;;2.1;1.9;;;;;;;19.22;67.19629;957.3003;;;;
2019/06/19 04:48:26;;;;;;;4.1;2.1;;;;;;;19.25;67.11816;957.2644;;;;
2019/06/19 04:50:51;;;;;;;3.2;1.8;;;;;;;19.25;68.46973;957.327;;;;
2019/06/19 04:53:16;;;;;;;2.3;1.8;;;;;;;19.31;68.67773;957.3839;;;;
2019/06/19 04:55:41;;;;;;;3.4;2;;;;;;;19.32;69.40527;957.4102;;;;
2019/06/19 04:58:07;;;;;;;3.3;2.1;;;;;;;19.4;68.57422;957.3787;;;;
2019/06/19 05:00:33;;;;;;;4.2;2.1;;;;;;;19.45;68.5459;957.3929;;;;
2019/06/19 05:02:58;;;;;;;2.8;2.1;;;;;;;19.5;67.9668;957.4009;;;;
2019/06/19 05:05:27;;;;;;;3.8;2;;;;;;;19.5;68.68359;957.3826;;;;
2019/06/19 05:07:52;;;;;;;3.1;2.3;;;;;;;19.61;67.72656;957.3077;;;;
2019/06/19 05:10:17;;;;;;;3;2.2;;;;;;;19.66;68.61426;957.3245;;;;
2019/06/19 05:12:42;;;;;;;3.6;2;;;;;;;19.64;69.05664;957.261;;;;
2019/06/19 05:15:07;;;;;;;2.9;1.9;;;;;;;19.69;68.38379;957.2693;;;;
2019/06/19 05:17:32;;;;;;;4.6;2.3;;;;;;;19.59;68.40234;957.2709;;;;
2019/06/19 05:19:57;;;;;;;2.6;2;;;;;;;19.62;68.84277;957.2587;;;;
2019/06/19 05:22:23;;;;;;;3.3;2.3;;;;;;;19.63;68.58594;957.3077;;;;
2019/06/19 05:24:48;;;;;;;2.5;1.9;;;;;;;19.68;68.18262;957.3049;;;;
2019/06/19 05:27:13;;;;;;;3.2;2.1;;;;;;;19.64;67.67188;957.2791;;;;
2019/06/19 05:29:38;;;;;;;2.8;2.2;;;;;;;19.65;67.57813;957.2742;;;;
2019/06/19 05:32:03;;;;;;;2.2;2;;;;;;;19.73;68.50781;957.2734;;;;
2019/06/19 05:34:28;;;;;;;2.5;2.1;;;;;;;19.81;68.16797;957.3083;;;;
2019/06/19 05:36:53;;;;;;;4.2;2.3;;;;;;;19.74;68.80371;957.288;;;;
2019/06/19 05:39:18;;;;;;;4.5;2.2;;;;;;;19.78;67.24707;957.2815;;;;
2019/06/19 05:41:43;;;;;;;4.1;2.2;;;;;;;19.85;67.65625;957.3354;;;;
2019/06/19 05:44:08;;;;;;;3.5;2.3;;;;;;;19.78;67.96387;957.3444;;;;
2019/06/19 05:46:33;;;;;;;4.7;2.4;;;;;;;19.91;66.90137;957.3127;;;;
2019/06/19 05:48:59;;;;;;;4.5;2.6;;;;;;;19.99;66.44336;957.355;;;;
2019/06/19 05:51:25;;;;;;;4.5;2.3;;;;;;;20.01;66.72949;957.4075;;;;
2019/06/19 05:53:51;;;;;;;4.4;2.3;;;;;;;19.89;68.52148;957.3447;;;;
2019/06/19 05:56:16;;;;;;;5.6;2.4;;;;;;;19.97;68.8623;957.3528;;;;
2019/06/19 05:58:42;;;;;;;5;2.3;;;;;;;20.06;66.86426;957.3361;;;;
2019/06/19 06:01:07;;;;;;;3.6;2.6;;;;;;;20;68.16016;957.3308;;;;
2019/06/19 06:03:34;;;;;;;5.4;2.6;;;;;;;19.93;68.42285;957.3006;;;;
2019/06/19 06:06:02;;;;;;;5.5;2.3;;;;;;;20;66.30371;957.291;;;;
2019/06/19 06:08:32;;;;;;;3.2;1.9;;;;;;;20.14;67.58398;957.3441;;;;
2019/06/19 06:11:05;;;;;;;6.7;2.1;;;;;;;20.21;66.65234;957.3201;;;;
2019/06/19 06:13:31;;;;;;;2.5;1.9;;;;;;;20.21;66.68652;957.303;;;;
2019/06/19 06:16:04;;;;;;;3.7;2.2;;;;;;;20.46;65.38379;957.342;;;;
2019/06/19 06:18:29;;;;;;;10.8;3;;;;;;;20.47;67.57324;957.3021;;;;
2019/06/19 06:21:04;;;;;;;9.8;3;;;;;;;20.48;67.82422;957.3033;;;;
2019/06/19 06:23:19;;;;;;;10.6;2.9;;;;;;;20.51;68.40527;957.3465;;;;
2019/06/19 06:26:02;;;;;;;11.9;3.1;;;;;;;20.37;69.43066;957.3333;;;;
2019/06/19 06:28:10;;;;;;;7.2;2.9;;;;;;;20.42;68.16797;957.3336;;;;
2019/06/19 06:30:35;;;;;;;4.4;2.7;;;;;;;20.55;68.58594;957.3359;;;;
2019/06/19 06:33:00;;;;;;;7.9;3.1;;;;;;;20.67;66.86426;957.2967;;;;
2019/06/19 06:35:25;;;;;;;6.6;3;;;;;;;20.76;67.39453;957.3167;;;;
2019/06/19 06:37:51;;;;;;;9.4;3.1;;;;;;;20.77;67.06738;957.3497;;;;
2019/06/19 06:40:18;;;;;;;6.4;2.6;;;;;;;20.95;62.70996;957.3154;;;;
2019/06/19 06:42:43;;;;;;;3.6;2;;;;;;;20.92;63.41211;957.3105;;;;
2019/06/19 06:45:10;;;;;;;3.7;2.1;;;;;;;20.91;66.11133;957.2278;;;;
2019/06/19 06:47:41;;;;;;;5;2.5;;;;;;;20.94;67.46875;957.2112;;;;
2019/06/19 06:50:00;;;;;;;4.9;2.6;;;;;;;20.99;66.74609;957.215;;;;
2019/06/19 06:52:25;;;;;;;7.2;2.7;;;;;;;21.03;65.49219;957.1801;;;;
2019/06/19 06:54:50;;;;;;;6.8;2.2;;;;;;;21.01;63.38965;957.207;;;;
2019/06/19 06:57:15;;;;;;;6;3.2;;;;;;;21.15;61.05176;957.1944;;;;
2019/06/19 06:59:40;;;;;;;13.5;6.9;;;;;;;21.25;60.71191;957.1877;;;;
2019/06/19 07:02:05;;;;;;;18.1;5.5;;;;;;;21.25;62.76367;957.1976;;;;
2019/06/19 07:04:31;;;;;;;6.7;2.5;;;;;;;21.41;59.26074;957.1733;;;;
2019/06/19 07:06:56;;;;;;;7.9;2.8;;;;;;;21.52;59.07422;957.1099;;;;
2019/06/19 07:09:21;;;;;;;4.7;2.5;;;;;;;21.55;59.91602;957.0869;;;;
2019/06/19 07:11:46;;;;;;;7.6;6.1;;;;;;;21.61;60.53809;957.05;;;;
2019/06/19 07:14:11;;;;;;;7.1;3.3;;;;;;;21.79;59.3584;957.0259;;;;
2019/06/19 07:16:36;;;;;;;7.3;2.5;;;;;;;21.83;57.39063;957.0438;;;;
2019/06/19 07:19:01;;;;;;;2.8;1.7;;;;;;;22.18;55.65137;957.027;;;;
2019/06/19 07:21:26;;;;;;;2.7;1.8;;;;;;;22.1;56.77539;956.976;;;;
2019/06/19 07:23:51;;;;;;;5.4;2.7;;;;;;;22.04;57.51172;957.002;;;;
2019/06/19 07:26:19;;;;;;;2.3;1.6;;;;;;;21.96;57.24121;957.027;;;;
2019/06/19 07:28:45;;;;;;;3;1.9;;;;;;;22.1;56.98926;957.0399;;;;
2019/06/19 07:31:10;;;;;;;2.9;2.1;;;;;;;22.12;55.73828;956.9864;;;;
2019/06/19 07:33:35;;;;;;;3;2;;;;;;;22.19;56.05273;956.9205;;;;
2019/06/19 07:36:06;;;;;;;4;2.4;;;;;;;22.3;57.1084;956.9636;;;;
2019/06/19 07:38:31;;;;;;;2.5;2;;;;;;;22.38;59.25977;956.9213;;;;
2019/06/19 07:40:57;;;;;;;7.4;2.4;;;;;;;22.41;60.38672;956.9203;;;;
2019/06/19 07:43:22;;;;;;;3;1.8;;;;;;;22.54;55.50781;956.9202;;;;
2019/06/19 07:45:47;;;;;;;3;1.7;;;;;;;22.57;56.0791;956.9019;;;;
2019/06/19 07:48:12;;;;;;;3.1;1.8;;;;;;;22.64;56.87988;956.9153;;;;
2019/06/19 07:50:37;;;;;;;2.7;1.7;;;;;;;22.74;57.01074;956.9214;;;;
2019/06/19 07:53:02;;;;;;;2.7;1.9;;;;;;;22.84;56.5498;956.8474;;;;
2019/06/19 07:55:27;;;;;;;4.7;2.1;;;;;;;22.83;58.08887;956.9142;;;;
2019/06/19 07:57:52;;;;;;;2.4;1.8;;;;;;;22.86;56.32813;956.8817;;;;
2019/06/19 08:00:17;;;;;;;2.9;1.8;;;;;;;23.04;55.14355;956.837;;;;
2019/06/19 08:02:42;;;;;;;2.6;1.7;;;;;;;22.99;57.88379;956.85;;;;
2019/06/19 08:05:07;;;;;;;4.3;1.7;;;;;;;23.27;54.68555;956.8521;;;;
2019/06/19 08:07:32;;;;;;;2.8;1.6;;;;;;;23.32;53.61328;956.8094;;;;
2019/06/19 08:09:58;;;;;;;78.1;6.5;;;;;;;23.3;55.30566;956.8292;;;;
2019/06/19 08:12:23;;;;;;;13.9;2.3;;;;;;;23.37;56.19141;956.7296;;;;
2019/06/19 08:14:49;;;;;;;3;1.7;;;;;;;23.52;53.22266;956.7134;;;;
2019/06/19 08:17:14;;;;;;;4.5;1.6;;;;;;;23.69;52.01074;956.7184;;;;
2019/06/19 08:19:41;;;;;;;3.4;1.7;;;;;;;23.64;52.79883;956.7056;;;;
2019/06/19 08:22:07;;;;;;;4.3;1.6;;;;;;;23.79;49.61426;956.6619;;;;
2019/06/19 08:24:32;;;;;;;2.9;1.4;;;;;;;23.76;50.39355;956.6683;;;;
2019/06/19 08:26:57;;;;;;;16;3;;;;;;;23.97;51.72363;956.7108;;;;
2019/06/19 08:31:48;;;;;;;30.3;4.2;;;;;;;23.86;52.54004;956.7569;;;;
2019/06/19 08:34:13;;;;;;;13.7;2.3;;;;;;;23.98;50.72754;956.7536;;;;
2019/06/19 08:36:38;;;;;;;18.4;2.5;;;;;;;24.19;49.12402;956.7687;;;;
2019/06/19 08:39:04;;;;;;;5.9;1.9;;;;;;;24.14;50.49609;956.7477;;;;
2019/06/19 08:41:30;;;;;;;7.2;2;;;;;;;24.17;52.08984;956.774;;;;
2019/06/19 08:43:55;;;;;;;3.9;1.7;;;;;;;24.42;49.73145;956.7678;;;;
2019/06/19 08:46:20;;;;;;;32;3.9;;;;;;;24.34;51.77832;956.7803;;;;
2019/06/19 08:48:45;;;;;;;9.5;1.8;;;;;;;24.28;52.29199;956.7547;;;;
2019/06/19 08:51:11;;;;;;;12.2;2.4;;;;;;;24.22;53.47363;956.7177;;;;
2019/06/19 08:53:36;;;;;;;2.2;1.5;;;;;;;24.54;48.85352;956.7073;;;;
2019/06/19 08:56:01;;;;;;;2.4;1.5;;;;;;;24.74;48.28125;956.733;;;;
2019/06/19 08:58:26;;;;;;;3.4;1.4;;;;;;;24.88;46.56055;956.7424;;;;
2019/06/19 09:00:51;;;;;;;1.7;1.3;;;;;;;24.74;46.24805;956.8074;;;;
2019/06/19 09:03:16;;;;;;;2.2;1.5;;;;;;;24.76;46.39355;956.8039;;;;
2019/06/19 09:05:41;;;;;;;3.6;1.5;;;;;;;24.75;46.61914;956.7175;;;;
2019/06/19 09:08:06;;;;;;;2.4;1.4;;;;;;;24.86;46.04785;956.7215;;;;
2019/06/19 09:10:44;;;;;;;3.1;1.4;;;;;;;24.99;47.15527;956.7084;;;;
2019/06/19 09:13:31;;;;;;;6.7;1.9;;;;;;;24.94;48.43457;956.6878;;;;
2019/06/19 09:15:32;;;;;;;4.3;1.9;;;;;;;24.95;48.30371;956.7119;;;;
2019/06/19 09:18:03;;;;;;;2.7;1.5;;;;;;;24.96;47.22266;956.6756;;;;
2019/06/19 09:20:28;;;;;;;7.9;1.9;;;;;;;25.06;48.04199;956.6628;;;;
2019/06/19 09:22:53;;;;;;;2.4;1.4;;;;;;;25.13;47.45508;956.7003;;;;
2019/06/19 09:25:18;;;;;;;4.1;1.6;;;;;;;25.14;47.75391;956.6707;;;;
2019/06/19 09:27:44;;;;;;;3.2;1.5;;;;;;;25.11;50.33301;956.6548;;;;
2019/06/19 09:30:09;;;;;;;2;1.6;;;;;;;25.06;50.6123;956.6842;;;;
2019/06/19 09:32:35;;;;;;;2.3;1.5;;;;;;;25.13;46.70605;956.6636;;;;
2019/06/19 09:35:00;;;;;;;3.9;1.8;;;;;;;25.33;47.07227;956.7416;;;;
2019/06/19 09:37:26;;;;;;;2.4;1.7;;;;;;;25.28;47.2334;956.723;;;;
2019/06/19 09:39:54;;;;;;;2.8;1.6;;;;;;;25.55;47.14258;956.7097;;;;
2019/06/19 09:42:19;;;;;;;3.1;1.8;;;;;;;25.63;46.48535;956.7122;;;;
2019/06/19 09:44:44;;;;;;;2.1;1.5;;;;;;;25.59;47.19531;956.7528;;;;
2019/06/19 09:47:09;;;;;;;6.2;2.8;;;;;;;25.55;48.16699;956.7297;;;;
2019/06/19 09:49:34;;;;;;;2.9;1.6;;;;;;;25.8;45.88184;956.7099;;;;
2019/06/19 09:51:59;;;;;;;4.2;1.9;;;;;;;25.71;47.88574;956.6464;;;;
2019/06/19 09:54:24;;;;;;;5;1.9;;;;;;;25.61;48.42383;956.6628;;;;
2019/06/19 09:56:49;;;;;;;4.7;1.8;;;;;;;25.87;47.37891;956.6942;;;;
2019/06/19 09:59:15;;;;;;;5.8;2.4;;;;;;;25.93;46.68164;956.7109;;;;
2019/06/19 10:01:41;;;;;;;2.1;1.4;;;;;;;26.17;43.15332;956.6948;;;;
2019/06/19 10:04:06;;;;;;;2.7;1.5;;;;;;;26.09;42.55078;956.7062;;;;
2019/06/19 10:06:31;;;;;;;2.1;1.5;;;;;;;26.33;43.01367;956.6942;;;;
2019/06/19 10:08:58;;;;;;;2.4;1.7;;;;;;;26.38;42.17188;956.7072;;;;
2019/06/19 10:11:23;;;;;;;1.9;1.5;;;;;;;26.27;42.90137;956.6834;;;;
2019/06/19 10:13:48;;;;;;;3.5;1.5;;;;;;;26.19;41.74902;956.6559;;;;
2019/06/19 10:16:13;;;;;;;1.6;1.4;;;;;;;26.2;42.63184;956.587;;;;
2019/06/19 10:18:39;;;;;;;2.2;1.5;;;;;;;26.35;41.25098;956.5747;;;;
2019/06/19 10:21:04;;;;;;;2.7;1.7;;;;;;;26.42;41.40039;956.5925;;;;
2019/06/19 10:23:29;;;;;;;1.7;1.3;;;;;;;26.62;38.78125;956.5889;;;;
2019/06/19 10:25:56;;;;;;;1.9;1.3;;;;;;;26.79;38.55566;956.61;;;;
2019/06/19 10:28:21;;;;;;;2.1;1.2;;;;;;;26.84;36.83008;956.5804;;;;
2019/06/19 10:30:46;;;;;;;1.8;1.1;;;;;;;26.86;35.12305;956.5753;;;;
2019/06/19 10:33:12;;;;;;;1.5;1.2;;;;;;;27.05;35.71191;956.586;;;;
2019/06/19 10:35:37;;;;;;;3;1.1;;;;;;;26.97;36.74414;956.5663;;;;
2019/06/19 10:38:02;;;;;;;3.6;1.2;;;;;;;27.18;35.18457;956.5978;;;;
2019/06/19 10:40:27;;;;;;;2.8;1.4;;;;;;;27.25;36.76758;956.61;;;;
2019/06/19 10:42:52;;;;;;;1.7;1.2;;;;;;;27.39;37.04199;956.6111;;;;
2019/06/19 10:45:19;;;;;;;7.6;6.4;;;;;;;27.22;36.60938;956.6133;;;;
2019/06/19 10:47:44;;;;;;;4.7;2.9;;;;;;;27.24;36.80176;956.5916;;;;
2019/06/19 10:50:09;;;;;;;2.9;2;;;;;;;27.21;38.05566;956.5966;;;;
2019/06/19 10:52:34;;;;;;;2.6;1.4;;;;;;;27.22;36.29785;956.5925;;;;
2019/06/19 10:55:12;;;;;;;3.9;1.7;;;;;;;27.23;36.95703;956.4998;;;;
2019/06/19 10:57:38;;;;;;;1.7;1.5;;;;;;;27.26;37.47363;956.4547;;;;
2019/06/19 11:00:04;;;;;;;1.8;1.2;;;;;;;27.24;37.0166;956.4503;;;;
2019/06/19 11:02:39;;;;;;;1.9;1.3;;;;;;;27.13;37.49902;956.4119;;;;
2019/06/19 11:05:14;;;;;;;2;1.6;;;;;;;27.2;37.01367;956.4489;;;;
2019/06/19 11:07:39;;;;;;;2.8;1.5;;;;;;;27.29;37.3916;956.3821;;;;
2019/06/19 11:10:05;;;;;;;2.2;1.2;;;;;;;27.19;37.53906;956.405;;;;
2019/06/19 11:12:32;;;;;;;2;1.4;;;;;;;27.28;37.33203;956.3875;;;;
2019/06/19 11:14:59;;;;;;;3.4;1.5;;;;;;;27.45;36.77148;956.3011;;;;
2019/06/19 11:17:24;;;;;;;1.5;1.4;;;;;;;27.42;36.86523;956.2913;;;;
2019/06/19 11:19:56;;;;;;;3.4;1.7;;;;;;;27.64;37.03906;956.2781;;;;
2019/06/19 11:22:21;;;;;;;2.1;1.4;;;;;;;28.12;36.81445;956.291;;;;
2019/06/19 11:24:46;;;;;;;3.5;1.5;;;;;;;28.09;36.80078;956.2515;;;;
2019/06/19 11:27:11;;;;;;;2.1;1.4;;;;;;;27.84;36.2041;956.2778;;;;
2019/06/19 11:29:47;;;;;;;2.6;1.5;;;;;;;28.09;35.77051;956.2213;;;;
2019/06/19 11:32:12;;;;;;;1.4;1.3;;;;;;;28.11;37.67578;956.2988;;;;
2019/06/19 11:34:47;;;;;;;4.4;1.7;;;;;;;27.97;35.08984;956.2205;;;;
2019/06/19 11:37:14;;;;;;;4.4;1.7;;;;;;;27.71;35.2373;956.2192;;;;
2019/06/19 11:39:53;;;;;;;2.9;1.4;;;;;;;27.5;39.27539;956.2053;;;;
2019/06/19 11:42:18;;;;;;;4.1;1.5;;;;;;;27.4;35.53613;956.1688;;;;
2019/06/19 11:44:55;;;;;;;3.8;1.6;;;;;;;27.54;36.14551;956.1192;;;;
2019/06/19 11:47:21;;;;;;;4.4;2;;;;;;;27.4;36.34961;956.235;;;;
2019/06/19 11:49:47;;;;;;;3.5;2;;;;;;;27.62;36.2959;956.1987;;;;
2019/06/19 11:52:12;;;;;;;2.5;1.7;;;;;;;27.42;36.90039;956.1322;;;;
2019/06/19 11:54:37;;;;;;;4;2.2;;;;;;;27.23;37.375;956.1838;;;;
2019/06/19 11:57:02;;;;;;;4.5;2.1;;;;;;;27.36;36.6084;956.1552;;;;
2019/06/19 11:59:43;;;;;;;1.8;1.6;;;;;;;27.57;35.40527;956.1323;;;;
2019/06/19 12:02:08;;;;;;;2.8;1.5;;;;;;;27.86;36.90137;956.0999;;;;
2019/06/19 12:04:33;;;;;;;6;2.3;;;;;;;27.87;35.87207;956.0761;;;;
2019/06/19 12:06:58;;;;;;;4.4;2.6;;;;;;;27.99;34.99609;956.0287;;;;
2019/06/19 12:09:23;;;;;;;2.1;1.6;;;;;;;28.25;34.66895;956.0856;;;;
2019/06/19 12:11:49;;;;;;;4.6;3;;;;;;;28.54;34.69141;956.0887;;;;
2019/06/19 12:14:22;;;;;;;2.3;1.6;;;;;;;28.6;34.87598;955.9611;;;;
2019/06/19 12:16:47;;;;;;;3.8;2.2;;;;;;;28.81;37.27832;955.9633;;;;
2019/06/19 12:19:12;;;;;;;2.2;1.6;;;;;;;29.06;34.41895;955.9597;;;;
2019/06/19 12:21:37;;;;;;;3.2;2;;;;;;;28.97;33.12793;955.9296;;;;
2019/06/19 12:24:04;;;;;;;2.3;1.6;;;;;;;28.82;34.90527;955.8987;;;;
2019/06/19 12:26:29;;;;;;;2.5;1.6;;;;;;;28.63;36.01758;955.8502;;;;
2019/06/19 12:28:55;;;;;;;6.4;2;;;;;;;28.7;36.81445;955.8201;;;;
2019/06/19 12:31:20;;;;;;;3.8;1.6;;;;;;;29.16;35.9043;955.8533;;;;
2019/06/19 12:33:45;;;;;;;120.9;10.3;;;;;;;29.58;36.09277;955.8312;;;;
2019/06/19 12:36:10;;;;;;;157.9;13.5;;;;;;;29.68;34.11816;955.8166;;;;
2019/06/19 12:38:53;;;;;;;9.3;2.1;;;;;;;29.64;32.81641;955.8489;;;;
2019/06/19 12:41:18;;;;;;;3.3;1.5;;;;;;;29.84;34.41895;955.7941;;;;
2019/06/19 12:43:43;;;;;;;7.2;2;;;;;;;30.07;32.52344;955.8101;;;;
2019/06/19 12:46:08;;;;;;;12.6;2;;;;;;;30.26;33.88477;955.8061;;;;
2019/06/19 12:48:35;;;;;;;48.5;5.2;;;;;;;30.66;33.19238;955.8689;;;;
2019/06/19 12:51:00;;;;;;;3.1;1.5;;;;;;;30.76;29.80273;955.8134;;;;
2019/06/19 12:53:25;;;;;;;4.9;1.4;;;;;;;30.08;30.2627;955.782;;;;
2019/06/19 12:55:50;;;;;;;3.4;1.6;;;;;;;30.33;30.06348;955.7761;;;;
2019/06/19 12:58:16;;;;;;;2.6;1.5;;;;;;;30.13;31.01172;955.7395;;;;
2019/06/19 13:00:42;;;;;;;3.1;1.7;;;;;;;30.3;30.87891;955.7758;;;;
2019/06/19 13:03:07;;;;;;;2.9;1.4;;;;;;;30.17;30.8457;955.7253;;;;
2019/06/19 13:05:32;;;;;;;1.7;1.2;;;;;;;30.33;31.2793;955.7014;;;;
2019/06/19 13:07:57;;;;;;;2.5;1.5;;;;;;;30.33;30.8457;955.639;;;;
2019/06/19 13:10:23;;;;;;;2.7;1.6;;;;;;;30.34;32.41113;955.6111;;;;
2019/06/19 13:12:48;;;;;;;2.8;1.5;;;;;;;30.31;33.9248;955.6184;;;;
2019/06/19 13:15:13;;;;;;;2.2;1.6;;;;;;;30.23;33.37793;955.5715;;;;
2019/06/19 13:17:38;;;;;;;2.4;1.4;;;;;;;30.33;32.62695;955.5254;;;;
2019/06/19 13:20:04;;;;;;;3;1.5;;;;;;;30.6;30.76758;955.5623;;;;
2019/06/19 13:22:30;;;;;;;3.9;1.6;;;;;;;30.85;29.7002;955.5452;;;;
2019/06/19 13:24:55;;;;;;;3.2;1.6;;;;;;;30.74;30.12598;955.4841;;;;
2019/06/19 13:27:20;;;;;;;2.3;1.4;;;;;;;30.47;28.96484;955.5053;;;;
2019/06/19 13:29:45;;;;;;;2.8;1.3;;;;;;;30.27;29.55371;955.4615;;;;
2019/06/19 13:32:27;;;;;;;4;1.3;;;;;;;30.03;31.83496;955.3934;;;;
2019/06/19 13:34:52;;;;;;;10.2;2.1;;;;;;;30.07;31.15234;955.3987;;;;
2019/06/19 13:37:20;;;;;;;4.3;1.4;;;;;;;30.52;31.85742;955.4176;;;;
2019/06/19 13:39:45;;;;;;;13.7;2.1;;;;;;;30.56;30.65723;955.3403;;;;
2019/06/19 13:42:10;;;;;;;3.7;1.5;;;;;;;30.61;30.05762;955.2848;;;;
2019/06/19 13:44:44;;;;;;;7.8;1.7;;;;;;;30.57;29.70605;955.2772;;;;
2019/06/19 13:47:09;;;;;;;12.3;2.1;;;;;;;30.88;29.79883;955.2227;;;;
2019/06/19 13:49:39;;;;;;;6.2;1.6;;;;;;;30.62;30.03418;955.1834;;;;
2019/06/19 13:52:04;;;;;;;5.9;1.6;;;;;;;30.6;29.93652;955.2048;;;;
2019/06/19 13:54:40;;;;;;;2.2;1.3;;;;;;;30.66;30.41016;955.2068;;;;
2019/06/19 13:57:05;;;;;;;3.5;1.4;;;;;;;30.34;30.73828;955.0983;;;;
2019/06/19 13:59:30;;;;;;;1.7;1.4;;;;;;;30.48;31.22949;955.0535;;;;
2019/06/19 14:01:55;;;;;;;3.2;1.6;;;;;;;30.71;32.7627;955.0438;;;;
2019/06/19 14:04:23;;;;;;;2.5;1.3;;;;;;;30.77;29.26074;955.0915;;;;
2019/06/19 14:06:48;;;;;;;2.9;1.4;;;;;;;30.98;28.71973;955.038;;;;
2019/06/19 14:09:13;;;;;;;3.3;1.6;;;;;;;31.06;29.4248;954.9673;;;;
2019/06/19 14:11:38;;;;;;;2.7;1.5;;;;;;;30.97;27.52539;954.9495;;;;
2019/06/19 14:14:03;;;;;;;1.9;1.2;;;;;;;31.11;28.04102;954.9579;;;;
2019/06/19 14:16:28;;;;;;;2.7;1.5;;;;;;;30.75;26.59766;954.912;;;;
2019/06/19 14:18:53;;;;;;;2.3;1.3;;;;;;;30.77;31.26074;954.9713;;;;
2019/06/19 14:21:19;;;;;;;5.7;2.1;;;;;;;30.7;29.91895;954.9302;;;;
2019/06/19 14:23:52;;;;;;;6.9;2.1;;;;;;;30.89;29.75098;954.9594;;;;
2019/06/19 14:26:17;;;;;;;11.3;1.9;;;;;;;30.87;30.14746;954.9308;;;;